Time;durP1;ratioP1;P1;durP2;ratioP2;P2;SDS_P1;SDS_P2;PMS_P1;PMS_P2;Temp;Humidity;BMP_temperature;BMP_pressure;BME280_temperature;BME280_humidity;BME280_pressure;Samples;Min_cycle;Max_cycle;Signal;HPM_P1;HPM_P2
2023/07/27 00:01:14;;;;;;;3.70;3.30;;;;;;;19.22;100.00;97854.46;109476;1252;74583;-68
2023/07/27 00:03:41;;;;;;;5.00;3.10;;;;;;;19.19;100.00;97861.94;109545;1253;66330;-68
2023/07/27 00:06:08;;;;;;;5.80;4.10;;;;;;;19.17;100.00;97862.48;109398;1253;72705;-68
2023/07/27 00:08:36;;;;;;;5.30;4.80;;;;;;;19.14;100.00;97855.35;109435;1252;61651;-68
2023/07/27 00:11:03;;;;;;;5.90;5.20;;;;;;;19.10;100.00;97848.42;109370;1253;59028;-68
2023/07/27 00:13:30;;;;;;;8.10;5.30;;;;;;;19.09;100.00;97842.89;109488;1252;74722;-67
2023/07/27 00:15:59;;;;;;;8.80;5.50;;;;;;;19.04;100.00;97848.36;109557;1252;66968;-68
2023/07/27 00:18:26;;;;;;;5.30;4.30;;;;;;;19.01;100.00;97844.14;109356;1253;72687;-68
2023/07/27 00:20:54;;;;;;;9.20;5.90;;;;;;;18.97;100.00;97842.29;109401;1254;61846;-69
2023/07/27 00:23:21;;;;;;;8.80;5.50;;;;;;;18.97;100.00;97839.06;109437;1253;60110;-68
2023/07/27 00:25:49;;;;;;;6.30;5.30;;;;;;;18.94;100.00;97840.55;109363;1253;74637;-68
2023/07/27 00:28:16;;;;;;;6.10;4.70;;;;;;;18.95;100.00;97846.66;109399;1253;66348;-68
2023/07/27 00:30:44;;;;;;;4.00;3.30;;;;;;;18.92;100.00;97844.90;109433;1252;71422;-68
2023/07/27 00:33:11;;;;;;;3.80;2.90;;;;;;;18.91;100.00;97841.77;109422;1253;61792;-69
2023/07/27 00:35:38;;;;;;;3.10;2.90;;;;;;;18.89;100.00;97844.79;109394;1254;58878;-69
2023/07/27 00:38:06;;;;;;;2.90;2.70;;;;;;;18.84;100.00;97844.81;109400;1254;73358;-69
2023/07/27 00:40:33;;;;;;;3.20;2.70;;;;;;;18.81;100.00;97845.92;109420;1252;66368;-69
2023/07/27 00:43:01;;;;;;;2.00;1.90;;;;;;;18.78;100.00;97851.95;109277;1253;73141;-68
2023/07/27 00:45:29;;;;;;;3.80;2.20;;;;;;;18.78;100.00;97854.54;109402;1252;60408;-68
2023/07/27 00:47:56;;;;;;;3.70;2.80;;;;;;;18.77;100.00;97857.55;109398;1253;60003;-68
2023/07/27 00:50:23;;;;;;;1.60;1.50;;;;;;;18.74;100.00;97853.86;109172;1252;75864;-68
2023/07/27 00:52:51;;;;;;;2.50;1.80;;;;;;;18.72;100.00;97852.19;109424;1252;67584;-68
2023/07/27 00:55:19;;;;;;;1.40;1.30;;;;;;;18.73;100.00;97848.52;109277;1253;72735;-69
2023/07/27 00:57:46;;;;;;;1.90;1.20;;;;;;;18.72;100.00;97847.52;109413;1253;61702;-69
2023/07/27 01:00:14;;;;;;;1.30;1.00;;;;;;;18.71;100.00;97845.83;109301;1253;58957;-68
2023/07/27 01:02:41;;;;;;;1.50;0.80;;;;;;;18.66;100.00;97846.49;109441;1252;73382;-69
2023/07/27 01:05:09;;;;;;;0.80;0.70;;;;;;;18.62;100.00;97849.44;109238;1252;67552;-69
2023/07/27 01:07:37;;;;;;;1.30;0.60;;;;;;;18.59;100.00;97851.96;109355;1253;71805;-68
2023/07/27 01:10:04;;;;;;;2.00;0.60;;;;;;;18.55;100.00;97852.19;109346;1254;61785;-68
2023/07/27 01:12:37;;;;;;;0.60;0.30;;;;;;;18.49;100.00;97856.09;109404;1253;59110;-68
2023/07/27 01:15:13;;;;;;;1.20;0.50;;;;;;;18.43;100.00;97857.31;109135;1253;74671;-69
2023/07/27 01:17:50;;;;;;;0.30;0.30;;;;;;;18.34;100.00;97852.84;109276;1252;66433;-69
2023/07/27 01:20:23;;;;;;;0.30;0.30;;;;;;;18.29;100.00;97847.14;109224;1254;71376;-69
2023/07/27 01:23:12;;;;;;;0.30;0.30;;;;;;;18.23;100.00;97844.20;109350;1254;61654;-69
2023/07/27 01:26:01;;;;;;;0.70;0.50;;;;;;;18.18;100.00;97844.59;109416;1252;59961;-68
2023/07/27 01:28:57;;;;;;;0.50;0.50;;;;;;;18.12;100.00;97852.57;109364;1254;74640;-68
2023/07/27 01:31:31;;;;;;;0.70;0.40;;;;;;;18.07;100.00;97854.24;109147;1253;66287;-68
2023/07/27 01:34:03;;;;;;;2.30;0.60;;;;;;;17.99;100.00;97849.28;109246;1254;72710;-69
2023/07/27 01:36:34;;;;;;;1.60;0.50;;;;;;;17.89;100.00;97853.23;109362;1253;61653;-68
2023/07/27 01:39:06;;;;;;;1.10;0.40;;;;;;;17.80;100.00;97850.42;109212;1254;60064;-68
2023/07/27 01:41:36;;;;;;;1.20;0.40;;;;;;;17.74;100.00;97851.27;109327;1253;74673;-68
2023/07/27 01:44:04;;;;;;;0.40;0.40;;;;;;;17.66;100.00;97850.98;109490;1254;67635;-68
2023/07/27 01:46:31;;;;;;;3.10;0.30;;;;;;;17.58;100.00;97855.04;109380;1254;72677;-68
2023/07/27 01:48:59;;;;;;;0.60;0.30;;;;;;;17.51;100.00;97858.66;109247;1253;61823;-68
2023/07/27 01:51:26;;;;;;;4.10;0.40;;;;;;;17.48;100.00;97859.10;109484;1252;60222;-67
2023/07/27 01:53:54;;;;;;;0.40;0.40;;;;;;;17.44;100.00;97865.98;109251;1255;73361;-69
2023/07/27 01:56:21;;;;;;;0.40;0.40;;;;;;;17.42;100.00;97863.27;109265;1253;68004;-68
2023/07/27 01:58:49;;;;;;;0.50;0.50;;;;;;;17.40;100.00;97855.36;109153;1254;72762;-68
2023/07/27 02:01:17;;;;;;;1.20;0.90;;;;;;;17.36;100.00;97848.76;109177;1253;61710;-68
2023/07/27 02:03:46;;;;;;;3.20;0.60;;;;;;;17.32;100.00;97850.97;109405;1254;59018;-68
2023/07/27 02:06:14;;;;;;;1.30;0.60;;;;;;;17.27;100.00;97854.20;109279;1253;76974;-69
2023/07/27 02:08:41;;;;;;;1.30;0.50;;;;;;;17.24;100.00;97849.87;109441;1252;67587;-68
2023/07/27 02:11:09;;;;;;;1.00;0.70;;;;;;;17.20;100.00;97851.32;109431;1253;73744;-68
2023/07/27 02:13:54;;;;;;;2.30;0.80;;;;;;;17.15;100.00;97851.70;109219;1253;61715;-68
2023/07/27 02:16:34;;;;;;;0.60;0.60;;;;;;;17.11;100.00;97845.47;109225;1253;60032;-68
2023/07/27 02:19:02;;;;;;;1.30;0.80;;;;;;;17.05;100.00;97837.17;109498;1253;74622;-69
2023/07/27 02:21:30;;;;;;;0.90;0.80;;;;;;;17.00;100.00;97836.90;109220;1253;67590;-69
2023/07/27 02:23:58;;;;;;;1.30;0.70;;;;;;;16.95;100.00;97836.67;109361;1252;72886;-69
2023/07/27 02:26:25;;;;;;;2.10;1.10;;;;;;;16.91;100.00;97834.05;109418;1254;60490;-69
2023/07/27 02:28:53;;;;;;;0.70;0.70;;;;;;;16.88;100.00;97834.17;109401;1253;59164;-69
2023/07/27 02:31:20;;;;;;;1.00;0.90;;;;;;;16.87;100.00;97831.36;109305;1256;73889;-69
2023/07/27 02:33:48;;;;;;;0.80;0.80;;;;;;;16.85;100.00;97836.77;109355;1253;66685;-68
2023/07/27 02:36:15;;;;;;;1.70;0.60;;;;;;;16.81;100.00;97841.55;109136;1252;73389;-68
2023/07/27 02:38:43;;;;;;;2.00;0.60;;;;;;;16.80;100.00;97845.93;109362;1253;59799;-69
2023/07/27 02:41:10;;;;;;;0.80;0.60;;;;;;;16.77;100.00;97848.73;109390;1253;58988;-68
2023/07/27 02:43:38;;;;;;;2.50;0.60;;;;;;;16.72;100.00;97849.33;109452;1252;72868;-68
2023/07/27 02:46:08;;;;;;;0.40;0.40;;;;;;;16.67;100.00;97855.55;109281;1253;68255;-68
2023/07/27 02:48:35;;;;;;;1.00;0.40;;;;;;;16.65;100.00;97858.77;109385;1253;71907;-68
2023/07/27 02:51:04;;;;;;;0.20;0.20;;;;;;;16.63;100.00;97857.48;109272;1253;61671;-68
2023/07/27 02:53:31;;;;;;;1.90;0.40;;;;;;;16.59;100.00;97861.23;109460;1253;60254;-68
2023/07/27 02:56:01;;;;;;;0.30;0.30;;;;;;;16.54;100.00;97859.71;109493;1253;74723;-68
2023/07/27 02:58:36;;;;;;;0.40;0.40;;;;;;;16.49;100.00;97870.50;109245;1253;66453;-68
2023/07/27 03:01:03;;;;;;;0.90;0.10;;;;;;;16.44;100.00;97865.34;109220;1254;72679;-68
2023/07/27 03:03:31;;;;;;;0.20;0.20;;;;;;;16.40;100.00;97863.92;109253;1253;61695;-68
2023/07/27 03:06:08;;;;;;;2.20;0.70;;;;;;;16.37;100.00;97863.55;109299;1254;59031;-68
2023/07/27 03:08:37;;;;;;;0.50;0.30;;;;;;;16.35;100.00;97865.34;109252;1254;74682;-68
2023/07/27 03:11:05;;;;;;;1.60;0.20;;;;;;;16.33;100.00;97865.01;109275;1253;66389;-68
2023/07/27 03:13:32;;;;;;;0.10;0.10;;;;;;;16.30;100.00;97868.71;109460;1253;72695;-68
2023/07/27 03:16:03;;;;;;;0.20;0.20;;;;;;;16.29;100.00;97873.64;109441;1252;60366;-68
2023/07/27 03:18:31;;;;;;;0.50;0.20;;;;;;;16.30;100.00;97868.77;109396;1253;58827;-68
2023/07/27 03:21:03;;;;;;;0.30;0.30;;;;;;;16.30;100.00;97877.67;109472;1253;74636;-68
2023/07/27 03:23:33;;;;;;;0.20;0.20;;;;;;;16.28;100.00;97881.24;109336;1253;67753;-68
2023/07/27 03:26:00;;;;;;;0.80;0.50;;;;;;;16.27;100.00;97883.97;109340;1253;72897;-68
2023/07/27 03:28:27;;;;;;;0.30;0.30;;;;;;;16.27;100.00;97892.50;109396;1253;60433;-69
2023/07/27 03:30:55;;;;;;;0.40;0.20;;;;;;;16.27;100.00;97898.67;109451;1253;60050;-69
2023/07/27 03:33:22;;;;;;;0.30;0.30;;;;;;;16.25;100.00;97908.72;109409;1253;74771;-67
2023/07/27 03:35:50;;;;;;;0.20;0.20;;;;;;;16.25;100.00;97913.17;109397;1253;67985;-67
2023/07/27 03:38:17;;;;;;;0.30;0.30;;;;;;;16.25;100.00;97916.02;109486;1252;71633;-67
2023/07/27 03:40:44;;;;;;;0.80;0.30;;;;;;;16.26;100.00;97914.98;109421;1253;60441;-68
2023/07/27 03:43:12;;;;;;;0.50;0.40;;;;;;;16.26;100.00;97915.72;109472;1254;58913;-67
2023/07/27 03:45:41;;;;;;;0.40;0.20;;;;;;;16.24;100.00;97916.48;109410;1252;74643;-67
2023/07/27 03:48:08;;;;;;;0.20;0.20;;;;;;;16.26;100.00;97920.50;109477;1253;66205;-70
2023/07/27 03:50:35;;;;;;;0.30;0.30;;;;;;;16.29;100.00;97918.66;109362;1253;73740;-69
2023/07/27 03:53:03;;;;;;;0.30;0.30;;;;;;;16.29;100.00;97925.92;109408;1253;60496;-68
2023/07/27 03:55:31;;;;;;;0.30;0.20;;;;;;;16.30;100.00;97924.79;109218;1253;58963;-68
2023/07/27 03:57:58;;;;;;;0.30;0.30;;;;;;;16.30;100.00;97925.17;109147;1253;73736;-69
2023/07/27 04:00:25;;;;;;;0.20;0.20;;;;;;;16.33;100.00;97926.34;109201;1254;66318;-69
2023/07/27 04:02:53;;;;;;;0.20;0.20;;;;;;;16.36;100.00;97928.80;109463;1254;71413;-68
2023/07/27 04:05:20;;;;;;;1.10;0.30;;;;;;;16.37;100.00;97928.13;109407;1254;60490;-68
2023/07/27 04:07:52;;;;;;;0.30;0.30;;;;;;;16.36;100.00;97925.11;109276;1253;60098;-69
2023/07/27 04:10:19;;;;;;;0.20;0.20;;;;;;;16.33;100.00;97925.60;109332;1254;73360;-69
2023/07/27 04:12:47;;;;;;;0.30;0.30;;;;;;;16.31;100.00;97924.88;109426;1253;66769;-69
2023/07/27 04:15:14;;;;;;;0.80;0.60;;;;;;;16.28;100.00;97929.66;109435;1253;72674;-68
2023/07/27 04:17:42;;;;;;;0.30;0.30;;;;;;;16.29;100.00;97933.04;109470;1253;61800;-68
2023/07/27 04:20:10;;;;;;;0.50;0.40;;;;;;;16.30;100.00;97928.91;109393;1252;58952;-68
2023/07/27 04:22:37;;;;;;;0.40;0.40;;;;;;;16.27;100.00;97932.74;109297;1253;73804;-67
2023/07/27 04:25:05;;;;;;;1.40;0.40;;;;;;;16.26;100.00;97933.64;109389;1253;66747;-68
2023/07/27 04:27:32;;;;;;;0.60;0.50;;;;;;;16.27;100.00;97930.17;109283;1253;71089;-68
2023/07/27 04:30:00;;;;;;;0.50;0.50;;;;;;;16.30;100.00;97927.27;109287;1253;60366;-68
2023/07/27 04:32:27;;;;;;;0.40;0.40;;;;;;;16.30;100.00;97925.77;109444;1255;59194;-68
2023/07/27 04:34:57;;;;;;;0.40;0.40;;;;;;;16.30;100.00;97925.44;109203;1254;74747;-68
2023/07/27 04:37:25;;;;;;;0.40;0.40;;;;;;;16.33;100.00;97925.16;109494;1253;67686;-69
2023/07/27 04:39:52;;;;;;;0.50;0.50;;;;;;;16.33;100.00;97931.23;109420;1253;71423;-67
2023/07/27 04:42:19;;;;;;;0.40;0.40;;;;;;;16.33;100.00;97932.30;109367;1258;60376;-68
2023/07/27 04:44:47;;;;;;;0.70;0.60;;;;;;;16.35;100.00;97937.05;109318;1253;60032;-67
2023/07/27 04:47:14;;;;;;;0.80;0.60;;;;;;;16.34;100.00;97942.80;109384;1254;73570;-69
2023/07/27 04:49:42;;;;;;;0.60;0.60;;;;;;;16.35;100.00;97941.45;109270;1253;66129;-69
2023/07/27 04:52:09;;;;;;;0.60;0.60;;;;;;;16.35;100.00;97944.89;109449;1253;72679;-68
2023/07/27 04:54:37;;;;;;;0.70;0.70;;;;;;;16.34;100.00;97945.11;109422;1253;62223;-69
2023/07/27 04:57:04;;;;;;;0.60;0.60;;;;;;;16.32;100.00;97942.97;109396;1253;60061;-68
2023/07/27 04:59:31;;;;;;;2.70;1.10;;;;;;;16.29;100.00;97939.59;109434;1252;73390;-69
2023/07/27 05:01:59;;;;;;;1.30;1.20;;;;;;;16.27;100.00;97940.59;109454;1253;67571;-69
2023/07/27 05:04:26;;;;;;;1.60;1.00;;;;;;;16.25;100.00;97949.71;109372;1256;72718;-67
2023/07/27 05:06:54;;;;;;;1.20;1.10;;;;;;;16.25;100.00;97949.98;109087;1252;61703;-68
2023/07/27 05:09:21;;;;;;;0.80;0.80;;;;;;;16.26;100.00;97957.00;109438;1254;58864;-68
2023/07/27 05:11:48;;;;;;;1.40;0.90;;;;;;;16.26;100.00;97960.10;109427;1253;74642;-67
2023/07/27 05:14:16;;;;;;;1.10;1.00;;;;;;;16.26;100.00;97960.73;109306;1252;70104;-68
2023/07/27 05:16:43;;;;;;;1.30;1.20;;;;;;;16.25;100.00;97967.80;109440;1253;73131;-68
2023/07/27 05:19:11;;;;;;;2.70;1.30;;;;;;;16.25;100.00;97971.67;109450;1253;61007;-68
2023/07/27 05:21:38;;;;;;;1.60;1.20;;;;;;;16.25;100.00;97971.22;109442;1253;59012;-68
2023/07/27 05:24:05;;;;;;;5.00;1.20;;;;;;;16.24;100.00;97971.43;109348;1254;73441;-68
2023/07/27 05:26:33;;;;;;;1.20;1.00;;;;;;;16.26;100.00;97969.59;109392;1253;67753;-67
2023/07/27 05:29:00;;;;;;;1.20;0.70;;;;;;;16.22;100.00;97971.13;109555;1252;71437;-68
2023/07/27 05:31:28;;;;;;;1.30;1.00;;;;;;;16.20;100.00;97976.83;109261;1254;61710;-67
2023/07/27 05:33:55;;;;;;;3.70;1.30;;;;;;;16.18;100.00;97979.44;109515;1253;60078;-71
2023/07/27 05:36:22;;;;;;;2.20;1.60;;;;;;;16.17;100.00;97983.91;109442;1253;74628;-67
2023/07/27 05:38:50;;;;;;;2.10;1.30;;;;;;;16.18;100.00;97986.50;109445;1253;67903;-68
2023/07/27 05:41:17;;;;;;;1.20;1.00;;;;;;;16.17;100.00;97988.46;109368;1253;73369;-66
2023/07/27 05:43:45;;;;;;;1.00;0.50;;;;;;;16.17;100.00;97992.55;109467;1253;60343;-66
2023/07/27 05:46:12;;;;;;;0.90;0.80;;;;;;;16.15;100.00;97992.75;109550;1253;58928;-67
2023/07/27 05:48:39;;;;;;;2.00;0.90;;;;;;;16.13;100.00;97990.45;109415;1253;76403;-67
2023/07/27 05:51:07;;;;;;;2.10;1.20;;;;;;;16.11;100.00;97999.70;109478;1253;68088;-61
2023/07/27 05:53:34;;;;;;;1.40;1.10;;;;;;;16.09;100.00;98000.71;109385;1253;72597;-67
2023/07/27 05:56:02;;;;;;;1.90;1.70;;;;;;;16.13;100.00;98002.36;109372;1257;63996;-68
2023/07/27 05:58:29;;;;;;;1.60;1.00;;;;;;;16.16;100.00;98007.13;109415;1253;59959;-67
2023/07/27 06:01:03;;;;;;;2.40;1.50;;;;;;;16.17;100.00;98012.73;109437;1254;74603;-67
2023/07/27 06:03:31;;;;;;;2.80;2.00;;;;;;;16.19;100.00;98017.86;109366;1253;67088;-68
2023/07/27 06:05:59;;;;;;;1.40;1.30;;;;;;;16.17;100.00;98022.27;109442;1254;71871;-67
2023/07/27 06:08:27;;;;;;;1.50;1.40;;;;;;;16.13;100.00;98026.82;109343;1253;61692;-67
2023/07/27 06:11:06;;;;;;;2.40;2.00;;;;;;;16.13;100.00;98031.23;109294;1254;60134;-67
2023/07/27 06:13:33;;;;;;;3.10;1.50;;;;;;;16.16;100.00;98035.73;109330;1253;74511;-67
2023/07/27 06:16:01;;;;;;;1.50;1.20;;;;;;;16.18;100.00;98034.74;109409;1253;67615;-68
2023/07/27 06:18:28;;;;;;;0.60;0.60;;;;;;;16.17;100.00;98031.78;109447;1253;72639;-69
2023/07/27 06:20:57;;;;;;;0.80;0.70;;;;;;;16.18;100.00;98036.42;109410;1254;60960;-69
2023/07/27 06:23:24;;;;;;;3.30;0.40;;;;;;;16.21;100.00;98036.31;109397;1253;58895;-68
2023/07/27 06:25:52;;;;;;;0.60;0.30;;;;;;;16.21;100.00;98036.30;109323;1253;75149;-60
2023/07/27 06:28:19;;;;;;;1.20;0.60;;;;;;;16.18;100.00;98038.13;109364;1252;66668;-57
2023/07/27 06:30:46;;;;;;;0.40;0.40;;;;;;;16.28;100.00;98042.73;109432;1254;72661;-59
2023/07/27 06:33:14;;;;;;;0.60;0.60;;;;;;;16.32;100.00;98043.05;109473;1253;60561;-60
2023/07/27 06:35:42;;;;;;;0.90;0.60;;;;;;;16.33;100.00;98045.27;109410;1253;60105;-66
2023/07/27 06:38:09;;;;;;;1.70;0.80;;;;;;;16.38;100.00;98049.44;109420;1253;73872;-67
2023/07/27 06:40:36;;;;;;;0.50;0.50;;;;;;;16.42;100.00;98052.80;109474;1253;66343;-67
2023/07/27 06:43:04;;;;;;;0.50;0.40;;;;;;;16.51;100.00;98054.09;109351;1254;72662;-68
2023/07/27 06:45:33;;;;;;;0.60;0.50;;;;;;;16.55;100.00;98050.76;109448;1256;61749;-69
2023/07/27 06:48:02;;;;;;;1.30;0.80;;;;;;;16.57;100.00;98055.45;109398;1257;59333;-69
2023/07/27 06:50:30;;;;;;;1.00;0.70;;;;;;;16.59;100.00;98062.52;109371;1253;73462;-68
2023/07/27 06:52:57;;;;;;;0.30;0.30;;;;;;;16.62;100.00;98062.95;109404;1253;68229;-68
2023/07/27 06:55:25;;;;;;;1.00;0.90;;;;;;;16.62;100.00;98068.20;109242;1253;183274;-71
2023/07/27 06:57:55;;;;;;;0.80;0.80;;;;;;;16.58;100.00;98068.41;109473;1254;60450;-69
2023/07/27 07:00:22;;;;;;;1.30;0.90;;;;;;;16.51;100.00;98068.30;109507;1253;59126;-75
2023/07/27 07:02:50;;;;;;;1.10;0.80;;;;;;;16.47;100.00;98071.36;109402;1253;73441;-68
2023/07/27 07:05:17;;;;;;;1.60;0.50;;;;;;;16.50;100.00;98072.52;109481;1255;67646;-68
2023/07/27 07:07:45;;;;;;;0.50;0.40;;;;;;;16.52;100.00;98072.16;109479;1254;73432;-68
2023/07/27 07:10:12;;;;;;;0.40;0.40;;;;;;;16.55;100.00;98073.47;109270;1253;61680;-68
2023/07/27 07:12:40;;;;;;;0.60;0.40;;;;;;;16.59;100.00;98075.08;109432;1253;58899;-68
2023/07/27 07:15:08;;;;;;;1.40;0.50;;;;;;;16.61;100.00;98075.27;109390;1253;73923;-68
2023/07/27 07:17:35;;;;;;;0.90;0.50;;;;;;;16.62;100.00;98083.99;109432;1253;67832;-68
2023/07/27 07:20:09;;;;;;;0.30;0.30;;;;;;;16.63;100.00;98083.86;109393;1253;72604;-68
2023/07/27 07:22:37;;;;;;;0.60;0.50;;;;;;;16.58;100.00;98081.34;109459;1252;61716;-68
2023/07/27 07:25:04;;;;;;;0.50;0.50;;;;;;;16.51;100.00;98083.08;109396;1254;60014;-67
2023/07/27 07:27:32;;;;;;;0.70;0.70;;;;;;;16.50;100.00;98082.67;109454;1254;75228;-68
2023/07/27 07:29:59;;;;;;;0.50;0.50;;;;;;;16.50;100.00;98082.64;109408;1253;66878;-69
2023/07/27 07:32:26;;;;;;;1.80;0.80;;;;;;;16.48;100.00;98087.86;109414;1256;71371;-68
2023/07/27 07:34:54;;;;;;;0.50;0.50;;;;;;;16.48;100.00;98087.48;109470;1253;60829;-68
2023/07/27 07:37:21;;;;;;;0.70;0.70;;;;;;;16.51;100.00;98088.86;109491;1254;60018;-68
2023/07/27 07:39:49;;;;;;;0.60;0.60;;;;;;;16.52;100.00;98085.04;109393;1253;74671;-68
2023/07/27 07:42:16;;;;;;;0.60;0.60;;;;;;;16.57;100.00;98088.73;109425;1253;67726;-67
2023/07/27 07:44:44;;;;;;;1.50;0.50;;;;;;;16.55;100.00;98091.48;109328;1254;72718;-68
2023/07/27 07:47:11;;;;;;;0.70;0.70;;;;;;;16.52;100.00;98092.19;109450;1253;61712;-69
2023/07/27 07:49:39;;;;;;;2.30;0.60;;;;;;;16.58;100.00;98094.20;109422;1258;59182;-67
2023/07/27 07:52:06;;;;;;;0.80;0.30;;;;;;;16.60;100.00;98092.06;109473;1253;74729;-68
2023/07/27 07:54:34;;;;;;;0.30;0.30;;;;;;;16.55;100.00;98094.33;109436;1253;66261;-68
2023/07/27 07:57:01;;;;;;;0.40;0.40;;;;;;;16.51;100.00;98099.88;109375;1254;71386;-68
2023/07/27 07:59:29;;;;;;;0.60;0.50;;;;;;;16.51;100.00;98109.75;109398;1257;60415;-68
2023/07/27 08:01:56;;;;;;;1.50;0.60;;;;;;;16.52;100.00;98112.59;109453;1255;58938;-68
2023/07/27 08:04:23;;;;;;;1.40;0.80;;;;;;;16.53;100.00;98115.67;109444;1253;74638;-68
2023/07/27 08:06:51;;;;;;;0.90;0.30;;;;;;;16.53;100.00;98114.97;109377;1253;67778;-70
2023/07/27 08:09:19;;;;;;;0.40;0.20;;;;;;;16.52;100.00;98118.55;109503;1253;72728;-68
2023/07/27 08:11:46;;;;;;;0.40;0.30;;;;;;;16.53;100.00;98121.09;109372;1253;60381;-68
2023/07/27 08:14:13;;;;;;;0.30;0.30;;;;;;;16.57;100.00;98123.11;109475;1254;58945;-68
2023/07/27 08:16:41;;;;;;;0.80;0.50;;;;;;;16.61;100.00;98129.02;109386;1256;73378;-68
2023/07/27 08:19:08;;;;;;;0.50;0.30;;;;;;;16.63;100.00;98130.20;109412;1253;67846;-68
2023/07/27 08:21:35;;;;;;;0.30;0.30;;;;;;;16.60;100.00;98131.80;109434;1256;71821;-68
2023/07/27 08:24:05;;;;;;;0.80;0.30;;;;;;;16.58;100.00;98138.41;109416;1254;58964;-68
2023/07/27 08:26:32;;;;;;;0.30;0.30;;;;;;;16.53;100.00;98143.80;109471;1253;58894;-68
2023/07/27 08:29:00;;;;;;;0.40;0.40;;;;;;;16.51;100.00;98146.63;109404;1254;72749;-68
2023/07/27 08:31:28;;;;;;;0.40;0.30;;;;;;;16.53;100.00;98151.52;109416;1253;66383;-68
2023/07/27 08:33:55;;;;;;;0.90;0.30;;;;;;;16.54;100.00;98157.05;109314;1254;72828;-68
2023/07/27 08:36:23;;;;;;;0.50;0.50;;;;;;;16.53;100.00;98164.57;109331;1254;60377;-68
2023/07/27 08:38:50;;;;;;;0.70;0.60;;;;;;;16.54;100.00;98164.02;109369;1254;60058;-68
2023/07/27 08:41:18;;;;;;;1.00;0.60;;;;;;;16.60;100.00;98171.64;109372;1254;73765;-67
2023/07/27 08:43:46;;;;;;;0.60;0.60;;;;;;;16.63;100.00;98171.38;109468;1253;66361;-67
2023/07/27 08:46:13;;;;;;;0.50;0.50;;;;;;;16.75;100.00;98176.86;109190;1254;70595;-67
2023/07/27 08:48:41;;;;;;;1.00;0.90;;;;;;;16.77;100.00;98177.23;109417;1254;60032;-67
2023/07/27 08:51:08;;;;;;;1.80;1.10;;;;;;;16.79;100.00;98175.00;109483;1254;60113;-67
2023/07/27 08:53:36;;;;;;;2.20;1.00;;;;;;;16.78;100.00;98183.48;109347;1257;75103;-67
2023/07/27 08:56:04;;;;;;;2.20;1.10;;;;;;;16.78;100.00;98184.12;109486;1253;66385;-68
2023/07/27 08:58:31;;;;;;;1.60;1.10;;;;;;;16.76;100.00;98183.65;109405;1254;72652;-68
2023/07/27 09:00:59;;;;;;;2.50;1.50;;;;;;;16.77;100.00;98183.98;109251;1254;61788;-68
2023/07/27 09:03:26;;;;;;;3.20;1.30;;;;;;;16.82;100.00;98176.88;109484;1254;60003;-69
2023/07/27 09:05:57;;;;;;;1.30;1.10;;;;;;;16.81;100.00;98180.56;109345;1254;74647;-68
2023/07/27 09:08:28;;;;;;;1.60;1.30;;;;;;;16.77;100.00;98181.52;109480;1254;66727;-68
2023/07/27 09:11:06;;;;;;;1.80;1.50;;;;;;;16.74;100.00;98185.39;109399;1254;71713;-67
2023/07/27 09:13:34;;;;;;;1.80;1.30;;;;;;;16.72;100.00;98185.61;109357;1254;59186;-68
2023/07/27 09:16:02;;;;;;;1.50;1.30;;;;;;;16.71;100.00;98187.69;109341;1253;60504;-68
2023/07/27 09:18:37;;;;;;;1.20;0.90;;;;;;;16.70;100.00;98185.40;109296;1257;74846;-67
2023/07/27 09:21:08;;;;;;;1.30;1.20;;;;;;;16.67;100.00;98190.67;109517;1254;67562;-68
2023/07/27 09:23:37;;;;;;;1.70;1.00;;;;;;;16.67;100.00;98192.06;109475;1254;71381;-68
2023/07/27 09:26:05;;;;;;;3.60;1.10;;;;;;;16.73;100.00;98199.23;109413;1254;60367;-68
2023/07/27 09:28:33;;;;;;;2.70;1.10;;;;;;;16.86;100.00;98199.40;109410;1253;59124;-68
2023/07/27 09:31:02;;;;;;;1.60;1.10;;;;;;;16.99;100.00;98201.64;109476;1253;74592;-68
2023/07/27 09:33:30;;;;;;;1.50;0.90;;;;;;;17.10;100.00;98202.48;109408;1254;67802;-69
2023/07/27 09:35:58;;;;;;;3.20;1.40;;;;;;;17.18;100.00;98201.39;109345;1257;72670;-68
2023/07/27 09:38:26;;;;;;;2.40;1.10;;;;;;;17.24;100.00;98198.57;109305;1253;60473;-68
2023/07/27 09:40:53;;;;;;;1.90;1.10;;;;;;;17.35;100.00;98204.92;109477;1254;60105;-69
2023/07/27 09:43:24;;;;;;;1.50;0.90;;;;;;;17.45;100.00;98210.38;109428;1254;74696;-68
2023/07/27 09:45:57;;;;;;;2.70;1.10;;;;;;;17.51;100.00;98212.61;109418;1254;66313;-68
2023/07/27 09:48:25;;;;;;;4.10;1.30;;;;;;;17.50;100.00;98218.36;109449;1253;71414;-69
2023/07/27 09:51:00;;;;;;;1.90;1.20;;;;;;;17.43;100.00;98224.04;109399;1254;60011;-68
2023/07/27 09:53:28;;;;;;;2.50;1.20;;;;;;;17.37;100.00;98226.41;109297;1253;59438;-69
2023/07/27 09:55:56;;;;;;;2.10;1.00;;;;;;;17.34;100.00;98230.94;109405;1252;73389;-68
2023/07/27 09:58:24;;;;;;;1.60;1.10;;;;;;;17.25;100.00;98227.82;109422;1252;67634;-68
2023/07/27 10:00:51;;;;;;;6.50;1.30;;;;;;;17.19;100.00;98226.06;109440;1253;72669;-68
2023/07/27 10:03:18;;;;;;;2.40;1.10;;;;;;;17.13;100.00;98227.95;109428;1253;60434;-69
2023/07/27 10:05:46;;;;;;;3.10;1.30;;;;;;;17.09;100.00;98231.05;109398;1253;58933;-69
2023/07/27 10:08:13;;;;;;;1.80;1.20;;;;;;;17.06;100.00;98234.21;109432;1253;74780;-69
2023/07/27 10:10:42;;;;;;;2.40;1.50;;;;;;;17.04;100.00;98237.78;109472;1254;67610;-68
2023/07/27 10:13:30;;;;;;;2.50;1.30;;;;;;;17.04;100.00;98235.67;109384;1253;72809;-68
2023/07/27 10:16:00;;;;;;;3.20;1.00;;;;;;;17.19;100.00;98240.03;109261;1254;61680;-68
2023/07/27 10:18:27;;;;;;;1.90;1.20;;;;;;;17.33;100.00;98236.73;109437;1252;59004;-68
2023/07/27 10:21:16;;;;;;;3.10;1.30;;;;;;;17.49;100.00;98240.50;109475;1253;73451;-68
2023/07/27 10:23:55;;;;;;;2.50;1.20;;;;;;;17.63;100.00;98244.04;109345;1254;66305;-68
2023/07/27 10:26:46;;;;;;;2.00;1.20;;;;;;;17.69;100.00;98241.06;109375;1253;72663;-68
2023/07/27 10:29:15;;;;;;;1.90;1.10;;;;;;;17.77;100.00;98237.69;109346;1253;60051;-68
2023/07/27 10:31:44;;;;;;;1.70;1.20;;;;;;;17.84;100.00;98234.91;109492;1253;60013;-68
2023/07/27 10:34:16;;;;;;;3.30;1.00;;;;;;;17.84;100.00;98228.66;109354;1254;73440;-68
2023/07/27 10:36:56;;;;;;;2.70;1.10;;;;;;;17.80;100.00;98223.91;109339;1254;66303;-68
2023/07/27 10:39:28;;;;;;;1.00;0.90;;;;;;;17.78;100.00;98226.09;109485;1253;71409;-69
2023/07/27 10:42:00;;;;;;;1.90;1.10;;;;;;;17.79;100.00;98224.81;109522;1253;59666;-69
2023/07/27 10:44:28;;;;;;;1.20;1.00;;;;;;;17.79;100.00;98230.62;109391;1253;59009;-68
2023/07/27 10:46:57;;;;;;;3.30;1.20;;;;;;;17.83;100.00;98238.36;109394;1254;73598;-68
2023/07/27 10:49:24;;;;;;;2.20;1.10;;;;;;;17.90;100.00;98241.54;109440;1254;67775;-69
2023/07/27 10:51:54;;;;;;;1.80;1.10;;;;;;;17.97;100.00;98234.11;109349;1253;72703;-69
2023/07/27 10:54:25;;;;;;;1.90;1.20;;;;;;;18.08;100.00;98229.05;109173;1254;60946;-67
2023/07/27 10:56:52;;;;;;;1.70;1.20;;;;;;;18.20;100.00;98222.93;109383;1253;60055;-68
2023/07/27 10:59:20;;;;;;;1.20;1.10;;;;;;;18.29;100.00;98221.59;109491;1253;73341;-68
2023/07/27 11:01:48;;;;;;;1.00;0.80;;;;;;;18.40;100.00;98221.79;109424;1254;66233;-69
2023/07/27 11:04:15;;;;;;;2.90;1.40;;;;;;;18.61;100.00;98227.44;109369;1254;73064;-68
2023/07/27 11:06:43;;;;;;;3.10;0.90;;;;;;;18.88;100.00;98219.08;109330;1253;60081;-68
2023/07/27 11:09:15;;;;;;;3.80;1.20;;;;;;;19.05;100.00;98223.20;109390;1253;59512;-68
2023/07/27 11:11:43;;;;;;;2.50;1.00;;;;;;;19.14;100.00;98223.65;109465;1253;73383;-67
2023/07/27 11:14:11;;;;;;;1.50;1.20;;;;;;;19.16;100.00;98230.53;109425;1253;67623;-68
2023/07/27 11:16:39;;;;;;;3.70;0.90;;;;;;;19.16;100.00;98234.08;109512;1253;71853;-68
2023/07/27 11:19:07;;;;;;;5.00;1.00;;;;;;;19.16;100.00;98237.85;109379;1253;60576;-68
2023/07/27 11:21:42;;;;;;;3.00;1.10;;;;;;;19.11;100.00;98232.25;109513;1252;58898;-68
2023/07/27 11:24:09;;;;;;;1.50;0.80;;;;;;;19.05;100.00;98238.45;109466;1253;74450;-68